Baie Verte, Canada
Current Conditions -  °F | °C
As of 12:00 AM on Tuesday 21 Oct 2014 (Local Time) from CWDH Reporting Station
Broken Clouds Broken Clouds  
Wind Chill: 34°   Ceiling: 1400
Heat Index: 44°   Visibility: 5mi
Dew Point: 38°   Wind: 30mph
Humidity: 80%   Direction: 230°SW
Pressure: 29.34"   Gusts: 41mph
Location:  49.92°N, 56.18°W
Report Text: CWDH 210200Z AUTO 23026G36KT 5SM BKN014 07/04 A2934 RMK SLP938 PK WND 23042/// T00690036 P0002 70114 WSI/SWOB
Loading
Personal Weather Stations






























Interactive Weather Map
Tropical Storm Tracking
New forecast layout! Learn more

10-Day Weather Forecast

Advertisements
Track Severe Weather on mobile